sensor_id;sensor_type;location;lat;lon;timestamp;P1;durP1;ratioP1;P2;durP2;ratioP2
12038;SDS011;6080;48.818;9.526;2023-03-08T04:00:55;15.67;;;12.57;;
12038;SDS011;6080;48.818;9.526;2023-03-08T04:03:21;12.07;;;10.40;;
12038;SDS011;6080;48.818;9.526;2023-03-08T04:05:47;11.80;;;9.93;;
12038;SDS011;6080;48.818;9.526;2023-03-08T04:08:13;15.10;;;11.20;;
12038;SDS011;6080;48.818;9.526;2023-03-08T04:10:38;18.13;;;11.43;;
12038;SDS011;6080;48.818;9.526;2023-03-08T04:13:04;12.73;;;11.53;;
12038;SDS011;6080;48.818;9.526;2023-03-08T04:15:30;13.93;;;12.40;;
12038;SDS011;6080;48.818;9.526;2023-03-08T04:17:56;13.60;;;12.20;;
12038;SDS011;6080;48.818;9.526;2023-03-08T04:20:22;14.73;;;12.93;;
12038;SDS011;6080;48.818;9.526;2023-03-08T04:22:49;16.40;;;14.80;;
12038;SDS011;6080;48.818;9.526;2023-03-08T04:25:15;17.23;;;15.40;;
12038;SDS011;6080;48.818;9.526;2023-03-08T04:27:41;17.70;;;16.23;;
12038;SDS011;6080;48.818;9.526;2023-03-08T04:30:06;19.73;;;18.13;;
12038;SDS011;6080;48.818;9.526;2023-03-08T04:32:33;20.33;;;17.87;;
12038;SDS011;6080;48.818;9.526;2023-03-08T04:34:59;20.37;;;18.27;;
12038;SDS011;6080;48.818;9.526;2023-03-08T04:37:25;18.80;;;17.20;;
12038;SDS011;6080;48.818;9.526;2023-03-08T04:39:51;19.57;;;17.77;;
12038;SDS011;6080;48.818;9.526;2023-03-08T04:42:16;20.73;;;18.60;;
12038;SDS011;6080;48.818;9.526;2023-03-08T04:44:42;18.90;;;17.10;;
12038;SDS011;6080;48.818;9.526;2023-03-08T04:47:08;17.77;;;16.13;;
12038;SDS011;6080;48.818;9.526;2023-03-08T04:49:33;18.50;;;16.80;;
12038;SDS011;6080;48.818;9.526;2023-03-08T04:51:59;19.20;;;17.30;;
12038;SDS011;6080;48.818;9.526;2023-03-08T04:54:25;18.30;;;16.60;;
12038;SDS011;6080;48.818;9.526;2023-03-08T04:56:51;18.83;;;17.17;;
12038;SDS011;6080;48.818;9.526;2023-03-08T04:59:17;18.33;;;16.73;;
12038;SDS011;6080;48.818;9.526;2023-03-08T05:01:43;17.87;;;16.17;;
12038;SDS011;6080;48.818;9.526;2023-03-08T05:04:11;19.40;;;17.43;;
12038;SDS011;6080;48.818;9.526;2023-03-08T05:06:37;18.33;;;16.63;;
12038;SDS011;6080;48.818;9.526;2023-03-08T05:09:03;19.70;;;18.00;;
12038;SDS011;6080;48.818;9.526;2023-03-08T05:11:30;18.33;;;16.73;;
12038;SDS011;6080;48.818;9.526;2023-03-08T05:13:56;20.07;;;18.20;;
12038;SDS011;6080;48.818;9.526;2023-03-08T05:16:23;19.20;;;17.43;;
12038;SDS011;6080;48.818;9.526;2023-03-08T05:18:50;19.23;;;17.33;;
12038;SDS011;6080;48.818;9.526;2023-03-08T05:21:16;19.47;;;17.70;;
12038;SDS011;6080;48.818;9.526;2023-03-08T05:23:44;18.90;;;17.00;;
12038;SDS011;6080;48.818;9.526;2023-03-08T05:26:12;19.70;;;17.80;;
12038;SDS011;6080;48.818;9.526;2023-03-08T05:28:39;20.33;;;18.27;;
12038;SDS011;6080;48.818;9.526;2023-03-08T05:31:12;21.00;;;18.90;;
12038;SDS011;6080;48.818;9.526;2023-03-08T05:33:39;20.90;;;18.97;;
12038;SDS011;6080;48.818;9.526;2023-03-08T05:36:07;21.23;;;19.03;;
12038;SDS011;6080;48.818;9.526;2023-03-08T05:38:33;24.40;;;20.57;;
12038;SDS011;6080;48.818;9.526;2023-03-08T05:40:59;20.53;;;18.20;;
12038;SDS011;6080;48.818;9.526;2023-03-08T05:43:26;21.10;;;19.00;;
12038;SDS011;6080;48.818;9.526;2023-03-08T05:48:26;18.73;;;16.83;;
12038;SDS011;6080;48.818;9.526;2023-03-08T05:50:52;17.63;;;15.87;;
12038;SDS011;6080;48.818;9.526;2023-03-08T05:53:18;19.20;;;17.30;;
12038;SDS011;6080;48.818;9.526;2023-03-08T05:55:44;18.93;;;17.03;;
12038;SDS011;6080;48.818;9.526;2023-03-08T05:58:10;16.73;;;15.17;;
12038;SDS011;6080;48.818;9.526;2023-03-08T06:00:36;18.70;;;16.80;;
12038;SDS011;6080;48.818;9.526;2023-03-08T06:03:02;17.17;;;15.17;;
12038;SDS011;6080;48.818;9.526;2023-03-08T06:05:28;21.23;;;19.13;;
12038;SDS011;6080;48.818;9.526;2023-03-08T06:07:54;19.67;;;17.60;;
12038;SDS011;6080;48.818;9.526;2023-03-08T06:10:20;18.93;;;17.23;;
12038;SDS011;6080;48.818;9.526;2023-03-08T06:12:46;20.10;;;18.10;;
12038;SDS011;6080;48.818;9.526;2023-03-08T06:15:12;18.77;;;17.00;;
12038;SDS011;6080;48.818;9.526;2023-03-08T06:17:38;17.80;;;16.10;;
12038;SDS011;6080;48.818;9.526;2023-03-08T06:20:05;18.00;;;15.80;;
12038;SDS011;6080;48.818;9.526;2023-03-08T06:22:31;17.43;;;15.73;;
12038;SDS011;6080;48.818;9.526;2023-03-08T06:24:56;17.93;;;14.83;;
12038;SDS011;6080;48.818;9.526;2023-03-08T06:27:22;17.00;;;15.07;;
12038;SDS011;6080;48.818;9.526;2023-03-08T06:29:48;17.80;;;13.80;;
12038;SDS011;6080;48.818;9.526;2023-03-08T06:32:15;16.97;;;14.70;;
12038;SDS011;6080;48.818;9.526;2023-03-08T06:34:41;16.10;;;13.20;;
12038;SDS011;6080;48.818;9.526;2023-03-08T06:37:07;15.50;;;13.60;;
12038;SDS011;6080;48.818;9.526;2023-03-08T06:39:33;20.07;;;13.67;;
12038;SDS011;6080;48.818;9.526;2023-03-08T06:41:59;19.87;;;14.07;;
12038;SDS011;6080;48.818;9.526;2023-03-08T06:44:28;13.97;;;12.40;;
12038;SDS011;6080;48.818;9.526;2023-03-08T06:46:55;16.07;;;12.97;;
12038;SDS011;6080;48.818;9.526;2023-03-08T06:49:21;12.47;;;11.17;;
12038;SDS011;6080;48.818;9.526;2023-03-08T06:51:47;19.37;;;12.63;;
12038;SDS011;6080;48.818;9.526;2023-03-08T06:54:13;14.77;;;12.07;;
12038;SDS011;6080;48.818;9.526;2023-03-08T06:56:45;13.53;;;11.33;;
12038;SDS011;6080;48.818;9.526;2023-03-08T06:59:14;13.33;;;10.57;;
12038;SDS011;6080;48.818;9.526;2023-03-08T07:01:40;10.63;;;9.07;;
12038;SDS011;6080;48.818;9.526;2023-03-08T07:04:06;16.03;;;11.53;;
12038;SDS011;6080;48.818;9.526;2023-03-08T07:06:32;12.87;;;11.57;;
12038;SDS011;6080;48.818;9.526;2023-03-08T07:08:57;12.80;;;11.03;;
12038;SDS011;6080;48.818;9.526;2023-03-08T07:11:23;17.30;;;11.57;;
12038;SDS011;6080;48.818;9.526;2023-03-08T07:13:51;14.50;;;11.43;;
12038;SDS011;6080;48.818;9.526;2023-03-08T07:16:16;12.60;;;10.80;;
12038;SDS011;6080;48.818;9.526;2023-03-08T07:18:42;13.33;;;10.33;;
12038;SDS011;6080;48.818;9.526;2023-03-08T07:21:08;18.03;;;11.63;;
12038;SDS011;6080;48.818;9.526;2023-03-08T07:23:35;10.87;;;9.77;;
12038;SDS011;6080;48.818;9.526;2023-03-08T07:26:03;20.60;;;10.83;;
12038;SDS011;6080;48.818;9.526;2023-03-08T07:28:32;16.67;;;11.97;;
12038;SDS011;6080;48.818;9.526;2023-03-08T07:30:58;16.40;;;11.83;;
12038;SDS011;6080;48.818;9.526;2023-03-08T07:33:24;18.60;;;13.90;;
12038;SDS011;6080;48.818;9.526;2023-03-08T07:35:49;15.33;;;12.70;;
12038;SDS011;6080;48.818;9.526;2023-03-08T07:38:15;15.17;;;13.53;;
12038;SDS011;6080;48.818;9.526;2023-03-08T07:40:41;17.97;;;16.07;;
12038;SDS011;6080;48.818;9.526;2023-03-08T07:43:07;17.57;;;15.77;;
12038;SDS011;6080;48.818;9.526;2023-03-08T07:45:33;19.60;;;16.80;;
12038;SDS011;6080;48.818;9.526;2023-03-08T07:47:59;17.10;;;15.30;;
12038;SDS011;6080;48.818;9.526;2023-03-08T07:50:25;20.30;;;15.53;;
12038;SDS011;6080;48.818;9.526;2023-03-08T07:52:50;17.63;;;15.80;;
12038;SDS011;6080;48.818;9.526;2023-03-08T07:55:16;17.27;;;14.20;;
12038;SDS011;6080;48.818;9.526;2023-03-08T07:57:42;15.30;;;13.17;;
12038;SDS011;6080;48.818;9.526;2023-03-08T08:00:08;15.30;;;11.60;;
12038;SDS011;6080;48.818;9.526;2023-03-08T08:02:35;17.70;;;12.93;;
12038;SDS011;6080;48.818;9.526;2023-03-08T08:05:01;22.33;;;14.83;;
12038;SDS011;6080;48.818;9.526;2023-03-08T08:07:28;18.77;;;16.23;;
12038;SDS011;6080;48.818;9.526;2023-03-08T08:09:54;21.87;;;19.73;;
12038;SDS011;6080;48.818;9.526;2023-03-08T08:12:20;25.40;;;22.90;;
12038;SDS011;6080;48.818;9.526;2023-03-08T08:14:49;24.47;;;22.13;;
12038;SDS011;6080;48.818;9.526;2023-03-08T08:17:17;26.43;;;24.13;;
12038;SDS011;6080;48.818;9.526;2023-03-08T08:19:44;25.13;;;19.43;;
12038;SDS011;6080;48.818;9.526;2023-03-08T08:22:10;18.97;;;16.43;;
12038;SDS011;6080;48.818;9.526;2023-03-08T08:24:35;18.10;;;14.27;;
12038;SDS011;6080;48.818;9.526;2023-03-08T08:27:01;20.33;;;16.20;;
12038;SDS011;6080;48.818;9.526;2023-03-08T08:29:27;22.93;;;15.33;;
12038;SDS011;6080;48.818;9.526;2023-03-08T08:31:53;21.40;;;17.27;;
12038;SDS011;6080;48.818;9.526;2023-03-08T08:34:20;19.20;;;16.20;;
12038;SDS011;6080;48.818;9.526;2023-03-08T08:36:46;20.93;;;17.50;;
12038;SDS011;6080;48.818;9.526;2023-03-08T08:39:11;22.57;;;17.80;;
12038;SDS011;6080;48.818;9.526;2023-03-08T08:41:37;21.57;;;19.60;;
12038;SDS011;6080;48.818;9.526;2023-03-08T08:44:03;21.60;;;17.97;;
12038;SDS011;6080;48.818;9.526;2023-03-08T08:46:29;21.97;;;16.20;;
12038;SDS011;6080;48.818;9.526;2023-03-08T08:48:58;21.17;;;17.03;;
12038;SDS011;6080;48.818;9.526;2023-03-08T08:51:24;22.80;;;20.33;;
12038;SDS011;6080;48.818;9.526;2023-03-08T08:53:50;23.90;;;15.50;;
12038;SDS011;6080;48.818;9.526;2023-03-08T08:56:18;22.70;;;16.57;;
12038;SDS011;6080;48.818;9.526;2023-03-08T08:58:45;26.07;;;17.30;;
12038;SDS011;6080;48.818;9.526;2023-03-08T09:01:16;28.30;;;18.73;;
12038;SDS011;6080;48.818;9.526;2023-03-08T09:03:43;28.70;;;18.10;;
12038;SDS011;6080;48.818;9.526;2023-03-08T09:06:10;26.93;;;17.93;;
12038;SDS011;6080;48.818;9.526;2023-03-08T09:08:36;22.87;;;16.53;;
12038;SDS011;6080;48.818;9.526;2023-03-08T09:11:03;21.33;;;16.27;;
12038;SDS011;6080;48.818;9.526;2023-03-08T09:13:30;19.47;;;15.83;;
12038;SDS011;6080;48.818;9.526;2023-03-08T09:15:56;19.43;;;14.93;;
12038;SDS011;6080;48.818;9.526;2023-03-08T09:18:22;22.47;;;16.20;;
12038;SDS011;6080;48.818;9.526;2023-03-08T09:20:48;22.33;;;15.33;;
12038;SDS011;6080;48.818;9.526;2023-03-08T09:23:14;21.20;;;15.30;;
12038;SDS011;6080;48.818;9.526;2023-03-08T09:25:39;22.03;;;15.47;;
12038;SDS011;6080;48.818;9.526;2023-03-08T09:28:05;23.17;;;16.53;;
12038;SDS011;6080;48.818;9.526;2023-03-08T09:30:31;21.63;;;15.33;;
12038;SDS011;6080;48.818;9.526;2023-03-08T09:32:57;19.73;;;15.03;;
12038;SDS011;6080;48.818;9.526;2023-03-08T09:35:23;23.93;;;15.17;;
12038;SDS011;6080;48.818;9.526;2023-03-08T09:37:49;21.57;;;15.70;;
12038;SDS011;6080;48.818;9.526;2023-03-08T09:40:25;25.40;;;16.93;;
12038;SDS011;6080;48.818;9.526;2023-03-08T09:42:52;22.37;;;16.47;;
12038;SDS011;6080;48.818;9.526;2023-03-08T09:45:23;19.80;;;15.47;;
12038;SDS011;6080;48.818;9.526;2023-03-08T09:50:36;22.47;;;15.37;;
12038;SDS011;6080;48.818;9.526;2023-03-08T09:53:04;25.20;;;15.97;;
12038;SDS011;6080;48.818;9.526;2023-03-08T09:59:04;18.77;;;15.23;;
12038;SDS011;6080;48.818;9.526;2023-03-08T10:01:44;24.07;;;17.30;;
12038;SDS011;6080;48.818;9.526;2023-03-08T10:09:39;24.40;;;18.37;;
12038;SDS011;6080;48.818;9.526;2023-03-08T10:14:49;22.90;;;17.57;;
12038;SDS011;6080;48.818;9.526;2023-03-08T10:17:32;22.50;;;17.67;;
12038;SDS011;6080;48.818;9.526;2023-03-08T10:20:19;21.77;;;16.20;;
12038;SDS011;6080;48.818;9.526;2023-03-08T10:22:52;26.87;;;16.70;;
12038;SDS011;6080;48.818;9.526;2023-03-08T10:25:25;22.00;;;15.70;;
12038;SDS011;6080;48.818;9.526;2023-03-08T10:27:55;21.27;;;16.70;;
12038;SDS011;6080;48.818;9.526;2023-03-08T10:30:27;22.33;;;18.93;;
12038;SDS011;6080;48.818;9.526;2023-03-08T10:32:58;21.60;;;17.30;;
12038;SDS011;6080;48.818;9.526;2023-03-08T10:35:31;22.70;;;17.43;;
12038;SDS011;6080;48.818;9.526;2023-03-08T10:38:02;18.13;;;15.47;;
12038;SDS011;6080;48.818;9.526;2023-03-08T10:40:29;19.77;;;16.70;;
12038;SDS011;6080;48.818;9.526;2023-03-08T10:42:56;23.77;;;19.07;;
12038;SDS011;6080;48.818;9.526;2023-03-08T10:45:29;21.87;;;17.10;;
12038;SDS011;6080;48.818;9.526;2023-03-08T10:47:56;21.03;;;18.77;;
12038;SDS011;6080;48.818;9.526;2023-03-08T10:50:36;21.40;;;18.23;;
12038;SDS011;6080;48.818;9.526;2023-03-08T10:53:23;22.80;;;19.17;;
12038;SDS011;6080;48.818;9.526;2023-03-08T10:55:49;23.17;;;18.90;;
12038;SDS011;6080;48.818;9.526;2023-03-08T10:58:26;21.93;;;18.10;;
12038;SDS011;6080;48.818;9.526;2023-03-08T11:00:56;24.27;;;21.97;;
12038;SDS011;6080;48.818;9.526;2023-03-08T11:03:24;27.90;;;25.23;;
12038;SDS011;6080;48.818;9.526;2023-03-08T11:06:04;25.57;;;23.40;;
12038;SDS011;6080;48.818;9.526;2023-03-08T11:08:38;25.83;;;23.37;;
12038;SDS011;6080;48.818;9.526;2023-03-08T11:11:16;24.77;;;22.87;;
12038;SDS011;6080;48.818;9.526;2023-03-08T11:13:42;23.60;;;21.60;;
12038;SDS011;6080;48.818;9.526;2023-03-08T11:24:15;16.33;;;14.63;;
12038;SDS011;6080;48.818;9.526;2023-03-08T11:36:19;10.57;;;9.67;;
12038;SDS011;6080;48.818;9.526;2023-03-08T11:38:58;10.57;;;9.93;;
12038;SDS011;6080;48.818;9.526;2023-03-08T11:41:43;7.97;;;7.47;;
12038;SDS011;6080;48.818;9.526;2023-03-08T11:50:22;8.63;;;8.13;;
12038;SDS011;6080;48.818;9.526;2023-03-08T12:00:54;7.83;;;7.20;;
12038;SDS011;6080;48.818;9.526;2023-03-08T12:03:36;6.70;;;6.40;;
12038;SDS011;6080;48.818;9.526;2023-03-08T12:06:09;6.30;;;6.00;;
12038;SDS011;6080;48.818;9.526;2023-03-08T12:11:30;5.90;;;5.70;;
12038;SDS011;6080;48.818;9.526;2023-03-08T12:14:08;5.93;;;5.73;;
12038;SDS011;6080;48.818;9.526;2023-03-08T12:16:47;5.83;;;5.53;;
12038;SDS011;6080;48.818;9.526;2023-03-08T12:19:25;5.17;;;4.87;;
12038;SDS011;6080;48.818;9.526;2023-03-08T12:24:49;5.03;;;4.77;;
12038;SDS011;6080;48.818;9.526;2023-03-08T12:32:43;5.50;;;5.30;;
12038;SDS011;6080;48.818;9.526;2023-03-08T12:37:38;4.77;;;4.67;;
12038;SDS011;6080;48.818;9.526;2023-03-08T12:40:24;5.17;;;4.97;;
12038;SDS011;6080;48.818;9.526;2023-03-08T12:43:05;6.67;;;6.47;;
12038;SDS011;6080;48.818;9.526;2023-03-08T12:45:59;6.13;;;5.67;;
12038;SDS011;6080;48.818;9.526;2023-03-08T12:48:46;6.03;;;5.67;;
12038;SDS011;6080;48.818;9.526;2023-03-08T12:53:45;5.83;;;5.57;;
12038;SDS011;6080;48.818;9.526;2023-03-08T12:56:36;5.77;;;5.57;;
12038;SDS011;6080;48.818;9.526;2023-03-08T13:01:41;6.07;;;5.77;;
12038;SDS011;6080;48.818;9.526;2023-03-08T13:04:26;6.23;;;6.03;;
12038;SDS011;6080;48.818;9.526;2023-03-08T13:09:20;6.60;;;6.33;;
12038;SDS011;6080;48.818;9.526;2023-03-08T13:12:00;8.10;;;7.80;;
12038;SDS011;6080;48.818;9.526;2023-03-08T13:14:59;7.70;;;7.40;;
12038;SDS011;6080;48.818;9.526;2023-03-08T13:17:33;8.00;;;7.70;;
12038;SDS011;6080;48.818;9.526;2023-03-08T13:20:15;5.70;;;5.50;;
12038;SDS011;6080;48.818;9.526;2023-03-08T13:23:04;5.83;;;5.53;;
12038;SDS011;6080;48.818;9.526;2023-03-08T13:28:15;4.80;;;4.40;;
12038;SDS011;6080;48.818;9.526;2023-03-08T13:30:55;5.33;;;5.13;;
12038;SDS011;6080;48.818;9.526;2023-03-08T13:33:36;5.37;;;5.17;;
12038;SDS011;6080;48.818;9.526;2023-03-08T13:36:14;5.70;;;5.50;;
12038;SDS011;6080;48.818;9.526;2023-03-08T13:38:43;4.40;;;4.30;;
12038;SDS011;6080;48.818;9.526;2023-03-08T13:41:18;4.60;;;4.20;;
12038;SDS011;6080;48.818;9.526;2023-03-08T13:43:43;3.73;;;3.50;;
12038;SDS011;6080;48.818;9.526;2023-03-08T13:46:10;3.70;;;3.50;;
12038;SDS011;6080;48.818;9.526;2023-03-08T13:48:42;3.43;;;3.33;;
12038;SDS011;6080;48.818;9.526;2023-03-08T13:51:08;4.00;;;3.90;;
12038;SDS011;6080;48.818;9.526;2023-03-08T13:53:42;4.30;;;3.33;;
12038;SDS011;6080;48.818;9.526;2023-03-08T13:56:17;4.17;;;4.07;;
12038;SDS011;6080;48.818;9.526;2023-03-08T13:58:53;5.33;;;5.03;;
12038;SDS011;6080;48.818;9.526;2023-03-08T14:01:23;6.13;;;5.77;;
12038;SDS011;6080;48.818;9.526;2023-03-08T14:03:50;5.57;;;5.27;;
12038;SDS011;6080;48.818;9.526;2023-03-08T14:06:22;6.70;;;5.97;;
12038;SDS011;6080;48.818;9.526;2023-03-08T14:08:53;6.23;;;5.93;;
12038;SDS011;6080;48.818;9.526;2023-03-08T14:11:27;6.70;;;6.40;;
12038;SDS011;6080;48.818;9.526;2023-03-08T14:13:55;6.93;;;6.73;;
12038;SDS011;6080;48.818;9.526;2023-03-08T14:16:33;7.40;;;7.10;;
12038;SDS011;6080;48.818;9.526;2023-03-08T14:21:53;8.77;;;8.37;;
12038;SDS011;6080;48.818;9.526;2023-03-08T14:24:25;9.77;;;9.00;;
12038;SDS011;6080;48.818;9.526;2023-03-08T14:27:02;14.10;;;13.10;;
12038;SDS011;6080;48.818;9.526;2023-03-08T14:29:37;9.20;;;8.77;;
12038;SDS011;6080;48.818;9.526;2023-03-08T14:32:05;9.97;;;9.30;;
12038;SDS011;6080;48.818;9.526;2023-03-08T14:34:34;9.87;;;9.37;;
12038;SDS011;6080;48.818;9.526;2023-03-08T14:37:05;11.00;;;10.30;;
12038;SDS011;6080;48.818;9.526;2023-03-08T14:39:42;9.53;;;8.90;;
12038;SDS011;6080;48.818;9.526;2023-03-08T14:42:15;9.37;;;8.97;;
12038;SDS011;6080;48.818;9.526;2023-03-08T14:45:01;10.57;;;9.97;;
12038;SDS011;6080;48.818;9.526;2023-03-08T14:47:32;9.73;;;9.33;;
12038;SDS011;6080;48.818;9.526;2023-03-08T14:50:03;9.20;;;8.90;;
12038;SDS011;6080;48.818;9.526;2023-03-08T14:52:30;8.60;;;8.20;;
12038;SDS011;6080;48.818;9.526;2023-03-08T14:55:00;8.67;;;8.37;;
12038;SDS011;6080;48.818;9.526;2023-03-08T14:57:28;8.90;;;8.60;;
12038;SDS011;6080;48.818;9.526;2023-03-08T14:59:55;9.20;;;8.90;;
12038;SDS011;6080;48.818;9.526;2023-03-08T15:02:31;9.73;;;9.20;;
12038;SDS011;6080;48.818;9.526;2023-03-08T15:04:58;9.20;;;8.70;;
12038;SDS011;6080;48.818;9.526;2023-03-08T15:07:24;10.70;;;10.20;;
12038;SDS011;6080;48.818;9.526;2023-03-08T15:09:56;8.43;;;8.13;;
12038;SDS011;6080;48.818;9.526;2023-03-08T15:12:24;10.00;;;9.40;;
12038;SDS011;6080;48.818;9.526;2023-03-08T15:14:50;12.03;;;11.30;;
12038;SDS011;6080;48.818;9.526;2023-03-08T15:17:16;10.93;;;10.40;;
12038;SDS011;6080;48.818;9.526;2023-03-08T15:19:41;13.00;;;12.40;;
12038;SDS011;6080;48.818;9.526;2023-03-08T15:22:09;12.93;;;12.07;;
12038;SDS011;6080;48.818;9.526;2023-03-08T15:24:37;11.27;;;10.77;;
12038;SDS011;6080;48.818;9.526;2023-03-08T15:27:03;11.97;;;11.47;;
12038;SDS011;6080;48.818;9.526;2023-03-08T15:29:30;11.50;;;10.90;;
12038;SDS011;6080;48.818;9.526;2023-03-08T15:31:58;13.20;;;12.67;;
12038;SDS011;6080;48.818;9.526;2023-03-08T15:34:24;15.40;;;14.70;;
12038;SDS011;6080;48.818;9.526;2023-03-08T15:36:51;16.53;;;15.53;;
12038;SDS011;6080;48.818;9.526;2023-03-08T15:39:17;18.97;;;17.97;;
12038;SDS011;6080;48.818;9.526;2023-03-08T15:41:44;19.40;;;18.57;;
12038;SDS011;6080;48.818;9.526;2023-03-08T15:44:10;17.73;;;16.90;;
12038;SDS011;6080;48.818;9.526;2023-03-08T15:46:37;16.33;;;15.57;;
12038;SDS011;6080;48.818;9.526;2023-03-08T15:49:03;12.20;;;11.70;;
12038;SDS011;6080;48.818;9.526;2023-03-08T15:51:30;11.30;;;10.70;;
12038;SDS011;6080;48.818;9.526;2023-03-08T15:53:57;10.37;;;9.97;;
12038;SDS011;6080;48.818;9.526;2023-03-08T15:56:23;9.87;;;9.27;;
12038;SDS011;6080;48.818;9.526;2023-03-08T15:58:52;10.00;;;9.53;;
12038;SDS011;6080;48.818;9.526;2023-03-08T16:01:19;10.80;;;10.33;;
12038;SDS011;6080;48.818;9.526;2023-03-08T16:03:46;9.60;;;9.20;;
12038;SDS011;6080;48.818;9.526;2023-03-08T16:06:15;9.57;;;9.17;;
12038;SDS011;6080;48.818;9.526;2023-03-08T16:08:41;10.60;;;10.20;;
12038;SDS011;6080;48.818;9.526;2023-03-08T16:11:08;11.90;;;11.30;;
12038;SDS011;6080;48.818;9.526;2023-03-08T16:13:34;10.37;;;9.97;;
12038;SDS011;6080;48.818;9.526;2023-03-08T16:16:01;9.40;;;9.00;;
12038;SDS011;6080;48.818;9.526;2023-03-08T16:18:28;9.17;;;8.80;;
12038;SDS011;6080;48.818;9.526;2023-03-08T16:20:55;9.40;;;9.00;;
12038;SDS011;6080;48.818;9.526;2023-03-08T16:23:22;9.70;;;9.30;;
12038;SDS011;6080;48.818;9.526;2023-03-08T16:26:02;9.60;;;9.13;;
12038;SDS011;6080;48.818;9.526;2023-03-08T16:28:29;10.67;;;10.27;;
12038;SDS011;6080;48.818;9.526;2023-03-08T16:30:55;8.70;;;8.40;;
12038;SDS011;6080;48.818;9.526;2023-03-08T16:33:22;9.50;;;9.10;;
12038;SDS011;6080;48.818;9.526;2023-03-08T16:35:51;9.07;;;8.77;;
12038;SDS011;6080;48.818;9.526;2023-03-08T16:38:17;10.43;;;10.00;;
12038;SDS011;6080;48.818;9.526;2023-03-08T16:40:43;10.53;;;10.03;;
12038;SDS011;6080;48.818;9.526;2023-03-08T16:43:09;8.93;;;8.63;;
12038;SDS011;6080;48.818;9.526;2023-03-08T16:45:35;4.60;;;4.27;;
12038;SDS011;6080;48.818;9.526;2023-03-08T16:48:01;6.00;;;5.60;;
12038;SDS011;6080;48.818;9.526;2023-03-08T16:50:28;7.40;;;7.10;;
12038;SDS011;6080;48.818;9.526;2023-03-08T16:52:55;4.83;;;4.63;;
12038;SDS011;6080;48.818;9.526;2023-03-08T16:55:25;4.20;;;4.00;;
12038;SDS011;6080;48.818;9.526;2023-03-08T16:57:51;7.30;;;6.70;;
12038;SDS011;6080;48.818;9.526;2023-03-08T17:00:18;17.30;;;14.67;;
12038;SDS011;6080;48.818;9.526;2023-03-08T17:02:44;8.33;;;7.73;;
12038;SDS011;6080;48.818;9.526;2023-03-08T17:05:10;6.13;;;5.67;;
12038;SDS011;6080;48.818;9.526;2023-03-08T17:07:37;6.73;;;6.53;;
12038;SDS011;6080;48.818;9.526;2023-03-08T17:10:03;15.13;;;14.53;;
12038;SDS011;6080;48.818;9.526;2023-03-08T17:12:30;10.77;;;10.37;;
12038;SDS011;6080;48.818;9.526;2023-03-08T17:14:56;7.10;;;6.80;;
12038;SDS011;6080;48.818;9.526;2023-03-08T17:17:21;7.53;;;7.17;;
12038;SDS011;6080;48.818;9.526;2023-03-08T17:19:51;22.43;;;21.20;;
12038;SDS011;6080;48.818;9.526;2023-03-08T17:22:21;48.60;;;46.33;;
12038;SDS011;6080;48.818;9.526;2023-03-08T17:24:46;76.77;;;72.93;;
12038;SDS011;6080;48.818;9.526;2023-03-08T17:27:13;85.50;;;81.40;;
12038;SDS011;6080;48.818;9.526;2023-03-08T17:29:39;83.87;;;79.90;;
12038;SDS011;6080;48.818;9.526;2023-03-08T17:32:05;78.17;;;74.43;;
12038;SDS011;6080;48.818;9.526;2023-03-08T17:34:30;60.33;;;57.43;;
12038;SDS011;6080;48.818;9.526;2023-03-08T17:36:56;39.40;;;37.37;;
12038;SDS011;6080;48.818;9.526;2023-03-08T17:39:22;41.13;;;39.20;;
12038;SDS011;6080;48.818;9.526;2023-03-08T17:41:48;34.50;;;32.87;;
12038;SDS011;6080;48.818;9.526;2023-03-08T17:44:14;20.13;;;19.23;;
12038;SDS011;6080;48.818;9.526;2023-03-08T17:46:39;38.57;;;36.73;;
12038;SDS011;6080;48.818;9.526;2023-03-08T17:49:06;24.13;;;22.90;;
12038;SDS011;6080;48.818;9.526;2023-03-08T17:51:36;7.83;;;7.37;;
12038;SDS011;6080;48.818;9.526;2023-03-08T17:54:02;8.57;;;8.07;;
12038;SDS011;6080;48.818;9.526;2023-03-08T17:56:29;5.00;;;4.77;;
12038;SDS011;6080;48.818;9.526;2023-03-08T17:58:56;6.00;;;5.70;;
12038;SDS011;6080;48.818;9.526;2023-03-08T18:01:24;8.50;;;7.93;;
12038;SDS011;6080;48.818;9.526;2023-03-08T18:03:54;4.70;;;4.50;;
12038;SDS011;6080;48.818;9.526;2023-03-08T18:06:32;4.87;;;4.67;;
12038;SDS011;6080;48.818;9.526;2023-03-08T18:09:09;4.63;;;4.43;;
12038;SDS011;6080;48.818;9.526;2023-03-08T18:11:36;5.93;;;5.53;;
12038;SDS011;6080;48.818;9.526;2023-03-08T18:14:12;5.33;;;4.70;;
12038;SDS011;6080;48.818;9.526;2023-03-08T18:16:39;6.10;;;5.70;;
12038;SDS011;6080;48.818;9.526;2023-03-08T18:19:05;16.57;;;15.77;;
12038;SDS011;6080;48.818;9.526;2023-03-08T18:21:32;21.20;;;20.20;;
12038;SDS011;6080;48.818;9.526;2023-03-08T18:23:58;24.30;;;23.13;;
12038;SDS011;6080;48.818;9.526;2023-03-08T18:26:24;36.87;;;35.13;;
12038;SDS011;6080;48.818;9.526;2023-03-08T18:28:50;47.33;;;44.80;;
12038;SDS011;6080;48.818;9.526;2023-03-08T18:31:17;50.10;;;47.70;;
12038;SDS011;6080;48.818;9.526;2023-03-08T18:33:49;57.17;;;54.47;;
12038;SDS011;6080;48.818;9.526;2023-03-08T18:36:19;53.07;;;50.37;;
12038;SDS011;6080;48.818;9.526;2023-03-08T18:38:45;52.07;;;49.53;;
12038;SDS011;6080;48.818;9.526;2023-03-08T18:41:12;55.07;;;52.17;;
12038;SDS011;6080;48.818;9.526;2023-03-08T18:43:42;49.93;;;47.33;;
12038;SDS011;6080;48.818;9.526;2023-03-08T18:46:08;50.67;;;48.17;;
12038;SDS011;6080;48.818;9.526;2023-03-08T18:48:36;53.43;;;50.67;;
12038;SDS011;6080;48.818;9.526;2023-03-08T18:51:03;53.73;;;50.93;;
12038;SDS011;6080;48.818;9.526;2023-03-08T18:53:29;51.20;;;48.60;;
12038;SDS011;6080;48.818;9.526;2023-03-08T18:55:59;53.70;;;51.10;;
12038;SDS011;6080;48.818;9.526;2023-03-08T18:58:26;52.70;;;50.10;;
12038;SDS011;6080;48.818;9.526;2023-03-08T19:00:52;51.83;;;49.37;;
12038;SDS011;6080;48.818;9.526;2023-03-08T19:03:22;46.33;;;44.03;;
12038;SDS011;6080;48.818;9.526;2023-03-08T19:05:52;52.63;;;50.10;;
12038;SDS011;6080;48.818;9.526;2023-03-08T19:08:18;44.37;;;42.27;;
12038;SDS011;6080;48.818;9.526;2023-03-08T19:10:44;43.40;;;41.37;;
12038;SDS011;6080;48.818;9.526;2023-03-08T19:13:10;50.93;;;48.30;;
12038;SDS011;6080;48.818;9.526;2023-03-08T19:15:36;51.17;;;48.70;;
12038;SDS011;6080;48.818;9.526;2023-03-08T19:18:03;46.93;;;44.70;;
12038;SDS011;6080;48.818;9.526;2023-03-08T19:20:29;27.70;;;26.40;;
12038;SDS011;6080;48.818;9.526;2023-03-08T19:22:56;14.40;;;13.40;;
12038;SDS011;6080;48.818;9.526;2023-03-08T19:25:21;7.73;;;7.03;;
12038;SDS011;6080;48.818;9.526;2023-03-08T19:27:47;12.80;;;10.33;;
12038;SDS011;6080;48.818;9.526;2023-03-08T19:30:14;8.83;;;8.00;;
12038;SDS011;6080;48.818;9.526;2023-03-08T19:32:39;9.50;;;8.90;;
12038;SDS011;6080;48.818;9.526;2023-03-08T19:35:05;5.37;;;5.07;;
12038;SDS011;6080;48.818;9.526;2023-03-08T19:37:31;3.80;;;3.70;;
12038;SDS011;6080;48.818;9.526;2023-03-08T19:39:57;3.97;;;3.80;;
12038;SDS011;6080;48.818;9.526;2023-03-08T19:42:23;7.77;;;7.30;;
12038;SDS011;6080;48.818;9.526;2023-03-08T19:44:49;10.10;;;9.60;;
12038;SDS011;6080;48.818;9.526;2023-03-08T19:47:17;7.70;;;7.30;;
12038;SDS011;6080;48.818;9.526;2023-03-08T19:49:44;10.07;;;9.60;;
12038;SDS011;6080;48.818;9.526;2023-03-08T19:52:11;11.80;;;11.20;;
12038;SDS011;6080;48.818;9.526;2023-03-08T19:54:40;14.90;;;14.30;;
12038;SDS011;6080;48.818;9.526;2023-03-08T19:57:06;11.97;;;11.47;;
12038;SDS011;6080;48.818;9.526;2023-03-08T19:59:33;10.03;;;9.53;;
12038;SDS011;6080;48.818;9.526;2023-03-08T20:02:01;4.50;;;4.30;;
12038;SDS011;6080;48.818;9.526;2023-03-08T20:04:28;3.80;;;3.60;;
12038;SDS011;6080;48.818;9.526;2023-03-08T20:06:57;6.43;;;6.23;;